Time;durP1;ratioP1;P1;durP2;ratioP2;P2;SDS_P1;SDS_P2;PMS_P1;PMS_P2;Temp;Humidity;BMP_temperature;BMP_pressure;BME280_temperature;BME280_humidity;BME280_pressure;Samples;Min_cycle;Max_cycle;Signal;HPM_P1;HPM_P2
2023/09/05 00:00:19;;;;;;;9.02;6.90;;;16.60;99.90;;;;;;4981641;28;20501;-84
2023/09/05 00:02:48;;;;;;;8.55;6.00;;;16.60;99.90;;;;;;4993648;28;20043;-84
2023/09/05 00:05:15;;;;;;;11.73;5.75;;;16.60;99.90;;;;;;4987797;28;20524;-84
2023/09/05 00:07:41;;;;;;;11.25;5.13;;;16.60;99.90;;;;;;4956683;28;20035;-84
2023/09/05 00:10:12;;;;;;;11.75;6.55;;;16.60;99.90;;;;;;4974043;28;20501;-83
2023/09/05 00:12:41;;;;;;;10.32;6.38;;;16.60;99.90;;;;;;4993101;28;20038;-84
2023/09/05 00:15:12;;;;;;;12.25;6.47;;;16.60;99.90;;;;;;4981676;28;20074;-84
2023/09/05 00:17:39;;;;;;;7.93;5.53;;;16.50;99.90;;;;;;4986264;28;20030;-84
2023/09/05 00:20:06;;;;;;;11.35;6.45;;;16.50;99.90;;;;;;4977757;28;20046;-84
2023/09/05 00:22:31;;;;;;;7.95;5.65;;;16.50;99.90;;;;;;4981939;28;20038;-83
2023/09/05 00:24:57;;;;;;;10.63;6.13;;;16.40;99.90;;;;;;4987587;28;20053;-84
2023/09/05 00:27:23;;;;;;;6.25;4.35;;;16.40;99.90;;;;;;4965288;28;20053;-83
2023/09/05 00:29:48;;;;;;;10.40;7.32;;;16.40;99.90;;;;;;4977441;28;20093;-83
2023/09/05 00:32:14;;;;;;;11.68;6.57;;;16.40;99.90;;;;;;4966104;28;20374;-84
2023/09/05 00:34:43;;;;;;;10.57;6.75;;;16.40;99.90;;;;;;4987281;28;20046;-84
2023/09/05 00:37:09;;;;;;;11.43;6.95;;;16.30;99.90;;;;;;4967875;28;20054;-84
2023/09/05 00:39:40;;;;;;;11.30;6.70;;;16.30;99.90;;;;;;4976598;28;20185;-84
2023/09/05 00:42:10;;;;;;;10.10;6.90;;;16.20;99.90;;;;;;4986842;28;20069;-84
2023/09/05 00:44:36;;;;;;;10.50;6.80;;;16.20;99.90;;;;;;4990035;28;20108;-84
2023/09/05 00:47:04;;;;;;;11.10;7.22;;;16.20;99.90;;;;;;4980890;28;20050;-83
2023/09/05 00:49:39;;;;;;;11.45;7.18;;;16.10;99.90;;;;;;4982563;28;20026;-84
2023/09/05 00:52:06;;;;;;;11.60;7.78;;;16.10;99.90;;;;;;4965027;28;20050;-84
2023/09/05 00:54:32;;;;;;;10.43;7.10;;;16.10;99.90;;;;;;4976028;28;20043;-84
2023/09/05 00:56:59;;;;;;;9.30;6.68;;;15.90;99.90;;;;;;4976310;28;20049;-84
2023/09/05 00:59:25;;;;;;;9.65;6.65;;;16.00;99.90;;;;;;4960329;28;20116;-83
2023/09/05 01:01:53;;;;;;;9.73;7.93;;;15.90;99.90;;;;;;4961962;28;20046;-83
2023/09/05 01:04:19;;;;;;;9.75;6.72;;;15.90;99.90;;;;;;4986609;28;20065;-84
2023/09/05 01:06:54;;;;;;;10.10;6.82;;;15.90;99.90;;;;;;4976150;28;20093;-84
2023/09/05 01:09:27;;;;;;;9.13;6.95;;;15.90;99.90;;;;;;4983609;28;20042;-83
2023/09/05 01:11:55;;;;;;;9.80;6.82;;;15.90;99.90;;;;;;4979449;28;20481;-84
2023/09/05 01:14:20;;;;;;;8.63;6.78;;;16.00;99.90;;;;;;4981278;28;20113;-83
2023/09/05 01:16:46;;;;;;;8.88;6.50;;;16.00;99.90;;;;;;4991592;28;20133;-84
2023/09/05 01:19:17;;;;;;;11.35;7.97;;;15.90;99.90;;;;;;4988528;28;20037;-84
2023/09/05 01:22:21;;;;;;;12.00;8.07;;;15.80;99.90;;;;;;4990425;28;20458;-83
2023/09/05 01:24:50;;;;;;;12.98;8.50;;;15.80;99.90;;;;;;4968927;28;20096;-83
2023/09/05 01:27:21;;;;;;;13.48;9.07;;;15.70;99.90;;;;;;4984546;28;20176;-84
2023/09/05 01:29:48;;;;;;;13.73;8.25;;;15.80;99.90;;;;;;4991201;28;20034;-84
2023/09/05 01:32:17;;;;;;;10.07;7.70;;;15.80;99.90;;;;;;4982237;28;20047;-83
2023/09/05 01:34:44;;;;;;;11.77;8.77;;;15.90;99.90;;;;;;5002515;28;20070;-84
2023/09/05 01:37:10;;;;;;;13.05;8.07;;;15.70;99.90;;;;;;4977575;28;20059;-84
2023/09/05 01:39:37;;;;;;;8.68;6.00;;;15.70;99.90;;;;;;4983257;28;20077;-83
2023/09/05 01:42:03;;;;;;;12.63;9.00;;;15.70;99.90;;;;;;4985009;28;20121;-83
2023/09/05 01:44:28;;;;;;;12.13;8.88;;;15.70;99.90;;;;;;4992667;28;20689;-84
2023/09/05 01:46:54;;;;;;;11.38;8.63;;;15.60;99.90;;;;;;4983669;28;20124;-84
2023/09/05 01:49:20;;;;;;;16.83;9.95;;;15.70;99.90;;;;;;4983478;28;20043;-84
2023/09/05 01:51:45;;;;;;;7.78;5.97;;;15.70;99.90;;;;;;4983379;28;20041;-83
2023/09/05 01:54:11;;;;;;;13.02;9.65;;;15.70;99.90;;;;;;4981397;28;20042;-84
2023/09/05 01:56:37;;;;;;;11.82;7.75;;;15.70;99.90;;;;;;4983514;28;20041;-83
2023/09/05 01:59:02;;;;;;;12.10;8.32;;;15.70;99.90;;;;;;4981067;28;20050;-84
2023/09/05 02:01:28;;;;;;;11.85;8.95;;;15.70;99.90;;;;;;4981710;28;20527;-83
2023/09/05 02:03:54;;;;;;;12.07;9.38;;;15.70;99.90;;;;;;4989665;28;20121;-83
2023/09/05 02:06:20;;;;;;;9.07;6.13;;;15.70;99.90;;;;;;4986321;28;20042;-83
2023/09/05 02:08:46;;;;;;;17.42;10.13;;;15.60;99.90;;;;;;4983145;28;20046;-83
2023/09/05 02:11:12;;;;;;;12.50;9.07;;;15.60;99.90;;;;;;4993780;28;20034;-84
2023/09/05 02:13:38;;;;;;;14.18;9.77;;;15.50;99.90;;;;;;4970894;28;20466;-84
2023/09/05 02:16:03;;;;;;;13.15;9.93;;;15.50;99.90;;;;;;4992750;28;20073;-84
2023/09/05 02:18:29;;;;;;;11.95;7.63;;;15.50;99.90;;;;;;4981081;28;20035;-84
2023/09/05 02:21:00;;;;;;;13.75;9.93;;;15.50;99.90;;;;;;4980250;28;20034;-84
2023/09/05 02:23:26;;;;;;;12.40;9.95;;;15.50;99.90;;;;;;4991101;28;20038;-83
2023/09/05 02:26:02;;;;;;;13.75;10.40;;;15.50;99.90;;;;;;4987120;28;20876;-83
2023/09/05 02:28:28;;;;;;;13.13;9.60;;;15.40;99.90;;;;;;4979164;28;20044;-84
2023/09/05 02:30:55;;;;;;;13.82;9.75;;;15.40;99.90;;;;;;4980578;28;20151;-84
2023/09/05 02:33:21;;;;;;;18.70;12.02;;;15.40;99.90;;;;;;4976821;28;20050;-84
2023/09/05 02:35:47;;;;;;;13.23;11.15;;;15.40;99.90;;;;;;4981604;28;20037;-84
2023/09/05 02:38:13;;;;;;;13.63;11.15;;;15.40;99.90;;;;;;4977019;28;20481;-84
2023/09/05 02:40:46;;;;;;;10.73;7.57;;;15.40;99.90;;;;;;4981905;28;20060;-84
2023/09/05 02:43:12;;;;;;;14.60;10.55;;;15.40;99.90;;;;;;4980799;28;20117;-84
2023/09/05 02:45:38;;;;;;;15.48;10.25;;;15.30;99.90;;;;;;4975174;28;20118;-84
2023/09/05 02:48:05;;;;;;;15.13;10.73;;;15.30;99.90;;;;;;4975547;28;20132;-84
2023/09/05 02:50:30;;;;;;;12.73;10.05;;;15.30;99.90;;;;;;4959877;28;20069;-83
2023/09/05 02:52:56;;;;;;;15.27;11.75;;;15.30;99.90;;;;;;4987752;28;20077;-84
2023/09/05 02:55:22;;;;;;;14.27;10.77;;;15.30;99.90;;;;;;4982137;28;20092;-84
2023/09/05 02:57:47;;;;;;;12.48;10.30;;;15.30;99.90;;;;;;4973114;28;20409;-84
2023/09/05 03:00:13;;;;;;;13.27;10.45;;;15.30;99.90;;;;;;4972046;28;20478;-83
2023/09/05 03:02:42;;;;;;;13.80;10.65;;;15.30;99.90;;;;;;4967259;28;20085;-84
2023/09/05 03:05:08;;;;;;;8.55;6.13;;;15.30;99.90;;;;;;4985051;28;20056;-84
2023/09/05 03:07:34;;;;;;;15.07;10.68;;;15.20;99.90;;;;;;4963673;28;20129;-83
2023/09/05 03:09:59;;;;;;;16.08;11.60;;;15.20;99.90;;;;;;4988999;28;20042;-83
2023/09/05 03:12:25;;;;;;;14.75;11.82;;;15.20;99.90;;;;;;4983475;28;20034;-84
2023/09/05 03:14:51;;;;;;;15.82;11.68;;;15.30;99.90;;;;;;4984526;28;20039;-83
2023/09/05 03:17:16;;;;;;;14.82;9.40;;;15.20;99.90;;;;;;4970082;28;20038;-83
2023/09/05 03:19:42;;;;;;;16.08;11.35;;;15.20;99.90;;;;;;4973788;28;20034;-83
2023/09/05 03:22:08;;;;;;;13.40;9.35;;;15.20;99.90;;;;;;4981369;28;20209;-83
2023/09/05 03:24:34;;;;;;;16.27;11.25;;;15.20;99.90;;;;;;4977725;28;20491;-83
2023/09/05 03:27:01;;;;;;;12.27;10.27;;;15.20;99.90;;;;;;4990887;28;20569;-83
2023/09/05 03:29:27;;;;;;;15.43;10.90;;;15.20;99.90;;;;;;4984546;28;20066;-83
2023/09/05 03:31:53;;;;;;;13.52;11.10;;;15.20;99.90;;;;;;4983822;28;20043;-83
2023/09/05 03:34:19;;;;;;;15.13;11.77;;;15.20;99.90;;;;;;4988299;28;20092;-83
2023/09/05 03:36:45;;;;;;;17.00;12.02;;;15.20;99.90;;;;;;4983729;28;20043;-83
2023/09/05 03:39:10;;;;;;;10.63;8.10;;;15.20;99.90;;;;;;4989353;28;20118;-83
2023/09/05 03:41:36;;;;;;;16.83;11.95;;;15.20;99.90;;;;;;4977076;28;20038;-83
2023/09/05 03:44:01;;;;;;;15.52;12.50;;;15.10;99.90;;;;;;4969888;28;20082;-83
2023/09/05 03:46:27;;;;;;;14.35;11.20;;;15.10;99.90;;;;;;4980178;28;20408;-83
2023/09/05 03:48:55;;;;;;;14.32;12.30;;;15.10;99.90;;;;;;4981908;28;20042;-83
2023/09/05 03:51:21;;;;;;;14.32;11.65;;;15.00;99.90;;;;;;4982541;28;20547;-83
2023/09/05 03:53:47;;;;;;;16.42;12.73;;;15.10;99.90;;;;;;4975085;28;20507;-83
2023/09/05 03:56:15;;;;;;;17.98;12.63;;;15.10;99.90;;;;;;4978450;28;20096;-83
2023/09/05 03:58:41;;;;;;;18.55;14.25;;;15.00;99.90;;;;;;4971676;28;20617;-83
2023/09/05 04:01:14;;;;;;;15.55;10.98;;;15.00;99.90;;;;;;4982635;28;20099;-83
2023/09/05 04:03:40;;;;;;;14.60;11.02;;;15.00;99.90;;;;;;4971929;28;20039;-82
2023/09/05 04:06:06;;;;;;;13.48;10.63;;;15.00;99.90;;;;;;4998897;28;20077;-83
2023/09/05 04:08:31;;;;;;;16.77;13.38;;;15.00;99.90;;;;;;4984779;28;20038;-83
2023/09/05 04:10:59;;;;;;;15.25;11.00;;;15.00;99.90;;;;;;4964769;28;20052;-83
2023/09/05 04:13:29;;;;;;;15.93;11.50;;;15.00;99.90;;;;;;4980338;28;20089;-83
2023/09/05 04:15:55;;;;;;;15.80;13.10;;;15.00;99.90;;;;;;4989575;28;20039;-83
2023/09/05 04:18:20;;;;;;;16.38;12.15;;;15.00;99.90;;;;;;4984654;28;20101;-83
2023/09/05 04:20:46;;;;;;;16.55;12.25;;;15.00;99.90;;;;;;4982011;28;20477;-83
2023/09/05 04:23:11;;;;;;;14.80;10.93;;;14.90;99.90;;;;;;4978417;28;20050;-83
2023/09/05 04:25:40;;;;;;;13.55;10.70;;;14.90;99.90;;;;;;4989141;28;20038;-83
2023/09/05 04:28:07;;;;;;;15.02;12.23;;;14.90;99.90;;;;;;4967586;28;20551;-83
2023/09/05 04:30:34;;;;;;;14.57;12.50;;;14.90;99.90;;;;;;4986732;28;20069;-83
2023/09/05 04:33:02;;;;;;;17.92;14.23;;;14.90;99.90;;;;;;4986453;28;20050;-83
2023/09/05 04:35:28;;;;;;;15.20;12.27;;;14.90;99.90;;;;;;4989636;28;20098;-83
2023/09/05 04:37:56;;;;;;;16.27;12.18;;;14.90;99.90;;;;;;4983482;28;20080;-83
2023/09/05 04:40:22;;;;;;;16.55;12.57;;;14.90;99.90;;;;;;5001898;28;20035;-83
2023/09/05 04:42:47;;;;;;;17.20;12.13;;;14.80;99.90;;;;;;4990769;28;20400;-82
2023/09/05 04:45:13;;;;;;;18.23;13.82;;;14.80;99.90;;;;;;4979112;28;20053;-83
2023/09/05 04:47:39;;;;;;;16.45;12.85;;;15.10;99.90;;;;;;4996770;28;20089;-83
2023/09/05 04:50:08;;;;;;;15.45;12.05;;;14.80;99.90;;;;;;4979987;28;20042;-83
2023/09/05 04:52:34;;;;;;;15.13;12.45;;;14.80;99.90;;;;;;4983872;28;20117;-83
2023/09/05 04:55:01;;;;;;;15.90;13.48;;;14.80;99.90;;;;;;5001622;28;20528;-83
2023/09/05 04:57:27;;;;;;;16.92;13.57;;;14.80;99.90;;;;;;4969132;28;20050;-83
2023/09/05 04:59:57;;;;;;;15.95;13.40;;;14.80;99.90;;;;;;4983088;28;20038;-83
2023/09/05 05:02:24;;;;;;;16.00;12.55;;;14.70;99.90;;;;;;4966145;28;20035;-83
2023/09/05 05:04:50;;;;;;;16.50;12.95;;;14.70;99.90;;;;;;4979848;28;20035;-84
2023/09/05 05:07:16;;;;;;;14.50;12.07;;;14.70;99.90;;;;;;4982507;28;20039;-84
2023/09/05 05:09:42;;;;;;;12.52;9.77;;;14.90;99.90;;;;;;4989913;28;20441;-84
2023/09/05 05:12:08;;;;;;;18.40;13.27;;;14.70;99.90;;;;;;4974762;28;20041;-84
2023/09/05 05:14:35;;;;;;;13.93;10.07;;;14.70;99.90;;;;;;4984830;28;20481;-84
2023/09/05 05:17:01;;;;;;;15.25;11.30;;;14.70;99.90;;;;;;4984246;28;20035;-84
2023/09/05 05:19:27;;;;;;;18.80;12.63;;;14.70;99.90;;;;;;5004189;28;20073;-84
2023/09/05 05:21:53;;;;;;;15.00;12.15;;;14.70;99.90;;;;;;4970037;28;20481;-84
2023/09/05 05:24:19;;;;;;;14.38;11.60;;;14.70;99.90;;;;;;4991527;28;20481;-84
2023/09/05 05:26:45;;;;;;;17.35;13.30;;;14.70;99.90;;;;;;4982207;28;20039;-84
2023/09/05 05:29:13;;;;;;;12.68;8.80;;;14.70;99.90;;;;;;4968757;28;20452;-83
2023/09/05 05:31:39;;;;;;;13.10;9.30;;;14.70;99.90;;;;;;4983136;28;20042;-84
2023/09/05 05:34:06;;;;;;;18.50;13.70;;;14.70;99.90;;;;;;4984354;28;20443;-84
2023/09/05 05:36:31;;;;;;;16.77;13.38;;;14.60;99.90;;;;;;4988893;28;20069;-84
2023/09/05 05:38:58;;;;;;;16.23;12.07;;;14.70;99.90;;;;;;4984406;28;20047;-86
2023/09/05 05:41:25;;;;;;;15.77;11.95;;;14.70;99.90;;;;;;4980330;28;20050;-86
2023/09/05 05:43:51;;;;;;;18.08;13.80;;;14.80;99.90;;;;;;4975396;28;20034;-86
2023/09/05 05:46:18;;;;;;;13.77;11.30;;;14.70;99.90;;;;;;4992506;28;20113;-85
2023/09/05 05:48:44;;;;;;;12.65;10.23;;;14.70;99.90;;;;;;4970032;28;20044;-86
2023/09/05 05:51:11;;;;;;;14.27;11.77;;;14.80;99.90;;;;;;4966158;28;20069;-87
2023/09/05 05:53:37;;;;;;;16.75;11.85;;;14.70;99.90;;;;;;4982642;28;20184;-86
2023/09/05 05:56:03;;;;;;;16.20;12.48;;;14.70;99.90;;;;;;4988013;28;20061;-88
2023/09/05 05:58:28;;;;;;;12.82;9.82;;;14.70;99.90;;;;;;4989468;28;20054;-86
2023/09/05 06:00:55;;;;;;;15.60;11.65;;;14.80;99.90;;;;;;4975017;28;20046;-86
2023/09/05 06:03:21;;;;;;;16.17;11.85;;;14.90;99.90;;;;;;4982915;28;20161;-84
2023/09/05 06:05:47;;;;;;;15.68;11.45;;;14.70;99.90;;;;;;4984348;28;20046;-89
2023/09/05 06:08:14;;;;;;;15.27;10.05;;;14.70;99.90;;;;;;4980301;28;20042;-85
2023/09/05 06:10:40;;;;;;;15.52;11.93;;;14.70;99.90;;;;;;4980942;28;20071;-87
2023/09/05 06:13:06;;;;;;;21.77;14.13;;;14.70;99.90;;;;;;4989904;28;20121;-83
2023/09/05 06:15:33;;;;;;;17.40;11.93;;;14.80;99.90;;;;;;4992461;28;20049;-82
2023/09/05 06:18:00;;;;;;;15.77;10.27;;;14.80;99.90;;;;;;4975043;28;20384;-83
2023/09/05 06:20:26;;;;;;;13.68;9.88;;;14.80;99.90;;;;;;4983479;28;20034;-83
2023/09/05 06:22:51;;;;;;;15.48;11.88;;;14.80;99.90;;;;;;4986477;28;21480;-83
2023/09/05 06:25:17;;;;;;;14.15;10.93;;;14.80;99.90;;;;;;4978321;28;20145;-83
2023/09/05 06:27:43;;;;;;;9.65;7.35;;;14.80;99.90;;;;;;4960069;28;20066;-83
2023/09/05 06:30:13;;;;;;;13.35;8.98;;;14.80;99.90;;;;;;4965657;28;20477;-83
2023/09/05 06:32:39;;;;;;;30.73;13.75;;;14.80;99.90;;;;;;4983862;28;20069;-83
2023/09/05 06:35:05;;;;;;;20.45;10.88;;;14.90;99.90;;;;;;4981269;28;20049;-83
2023/09/05 06:37:33;;;;;;;14.57;9.32;;;14.90;99.90;;;;;;4995231;28;20061;-83
2023/09/05 06:39:59;;;;;;;14.75;9.65;;;14.90;99.90;;;;;;4970131;28;20358;-82
2023/09/05 06:42:25;;;;;;;13.95;8.80;;;14.90;99.90;;;;;;4984890;28;20042;-83
2023/09/05 06:44:51;;;;;;;16.73;12.15;;;14.90;99.90;;;;;;4986769;28;20035;-82
2023/09/05 06:47:17;;;;;;;18.75;12.18;;;15.00;99.90;;;;;;4991171;28;20080;-83
2023/09/05 06:49:42;;;;;;;17.95;12.93;;;15.00;99.90;;;;;;4989380;28;20034;-82
2023/09/05 06:52:08;;;;;;;15.35;12.13;;;15.00;99.90;;;;;;4968194;28;20085;-81
2023/09/05 06:54:34;;;;;;;15.85;11.57;;;15.10;99.90;;;;;;4983150;28;20045;-84
2023/09/05 06:57:00;;;;;;;15.88;12.60;;;15.00;99.90;;;;;;4986537;28;20042;-84
2023/09/05 06:59:25;;;;;;;15.95;11.52;;;15.10;99.90;;;;;;4964501;28;20065;-86
2023/09/05 07:01:52;;;;;;;14.68;12.02;;;15.10;99.90;;;;;;4970605;28;20127;-85
2023/09/05 07:04:17;;;;;;;12.73;9.65;;;15.10;99.90;;;;;;4970982;28;20043;-85
2023/09/05 07:06:45;;;;;;;18.08;13.60;;;15.20;99.90;;;;;;4954473;28;20523;-86
2023/09/05 07:09:11;;;;;;;16.77;13.43;;;15.20;99.90;;;;;;4983807;28;20094;-85
2023/09/05 07:11:36;;;;;;;19.02;13.40;;;15.20;99.90;;;;;;4984213;28;20053;-85
2023/09/05 07:14:03;;;;;;;20.60;12.95;;;15.20;99.90;;;;;;4952865;28;20057;-85
2023/09/05 07:16:29;;;;;;;17.77;13.35;;;15.30;99.90;;;;;;4977630;28;20555;-85
2023/09/05 07:18:55;;;;;;;16.48;13.15;;;15.30;99.90;;;;;;4970338;28;20038;-85
2023/09/05 07:21:21;;;;;;;16.20;13.30;;;15.40;99.90;;;;;;4970696;28;20513;-85
2023/09/05 07:23:46;;;;;;;19.73;13.73;;;15.40;99.90;;;;;;4971813;28;20031;-85
2023/09/05 07:26:18;;;;;;;18.65;13.95;;;15.50;99.90;;;;;;4972311;28;20039;-85
2023/09/05 07:28:46;;;;;;;19.02;14.18;;;15.50;99.90;;;;;;4958067;28;20057;-86
2023/09/05 07:31:14;;;;;;;17.40;14.00;;;15.50;99.90;;;;;;4967832;28;20105;-85
2023/09/05 07:33:40;;;;;;;17.42;13.77;;;15.60;99.90;;;;;;4969541;28;20520;-85
2023/09/05 07:36:06;;;;;;;15.68;12.55;;;15.60;99.90;;;;;;4973645;28;20050;-85
2023/09/05 07:38:32;;;;;;;17.65;12.52;;;15.70;99.90;;;;;;4969026;28;20051;-86
2023/09/05 07:41:05;;;;;;;17.02;12.68;;;15.80;99.90;;;;;;4971498;28;20081;-85
2023/09/05 07:43:33;;;;;;;19.33;13.40;;;15.90;99.90;;;;;;4954408;28;20031;-85
2023/09/05 07:45:59;;;;;;;16.67;12.48;;;15.90;99.90;;;;;;4962628;28;20385;-85
2023/09/05 07:48:25;;;;;;;17.77;13.57;;;16.00;99.90;;;;;;4961897;28;20497;-85
2023/09/05 07:50:51;;;;;;;17.65;12.27;;;16.20;99.90;;;;;;4962026;28;20170;-85
2023/09/05 07:53:16;;;;;;;14.68;11.65;;;16.20;99.90;;;;;;4970483;28;20050;-85
2023/09/05 07:55:42;;;;;;;16.08;11.68;;;16.20;99.90;;;;;;4954454;28;20097;-86
2023/09/05 07:58:08;;;;;;;16.00;11.98;;;16.30;99.90;;;;;;4952676;28;20045;-85
2023/09/05 08:00:34;;;;;;;16.73;11.20;;;16.40;99.90;;;;;;4988774;28;20594;-85
2023/09/05 08:03:03;;;;;;;14.25;10.32;;;16.50;99.90;;;;;;4978086;28;20062;-85
2023/09/05 08:05:29;;;;;;;12.55;10.05;;;16.50;99.90;;;;;;4969693;28;20046;-86
2023/09/05 08:07:55;;;;;;;13.85;11.23;;;16.60;99.90;;;;;;4957291;28;20498;-86
2023/09/05 08:10:20;;;;;;;20.90;10.60;;;16.70;99.90;;;;;;4979505;28;20070;-85
2023/09/05 08:12:46;;;;;;;14.82;10.63;;;16.80;99.90;;;;;;4969892;28;20062;-86
2023/09/05 08:15:12;;;;;;;14.32;10.60;;;16.90;99.90;;;;;;4957625;28;20038;-86
2023/09/05 08:17:38;;;;;;;13.40;10.68;;;16.90;99.90;;;;;;4969507;28;20504;-85
2023/09/05 08:20:04;;;;;;;13.70;9.90;;;17.00;99.90;;;;;;4970895;28;20046;-86
2023/09/05 08:22:31;;;;;;;15.20;11.35;;;17.10;99.90;;;;;;4970436;28;20047;-85
2023/09/05 08:24:56;;;;;;;14.85;10.27;;;17.10;99.90;;;;;;4952213;28;20357;-85
2023/09/05 08:27:28;;;;;;;16.30;10.25;;;17.30;99.90;;;;;;4983832;28;20537;-85
2023/09/05 08:29:54;;;;;;;14.70;11.00;;;17.40;99.90;;;;;;4974134;28;20042;-86
2023/09/05 08:32:20;;;;;;;17.73;11.27;;;17.40;99.90;;;;;;4961730;28;20046;-85
2023/09/05 08:34:45;;;;;;;15.10;11.38;;;17.40;99.90;;;;;;4973011;28;20042;-85
2023/09/05 08:37:11;;;;;;;18.48;12.05;;;17.60;99.90;;;;;;4969877;28;20046;-85
2023/09/05 08:39:37;;;;;;;11.43;8.88;;;17.70;99.90;;;;;;4985052;28;20544;-85
2023/09/05 08:42:06;;;;;;;16.08;9.77;;;17.80;99.90;;;;;;4952507;28;20072;-85
2023/09/05 08:44:34;;;;;;;13.48;9.13;;;17.90;99.90;;;;;;4980701;28;20501;-85
2023/09/05 08:47:02;;;;;;;13.55;9.65;;;18.00;99.90;;;;;;4968789;28;20077;-85
2023/09/05 08:49:29;;;;;;;12.27;9.13;;;18.20;99.90;;;;;;4956196;28;20050;-85
2023/09/05 08:51:57;;;;;;;12.98;8.07;;;18.30;99.90;;;;;;4980462;28;20521;-85
2023/09/05 08:54:24;;;;;;;10.60;7.65;;;18.50;99.90;;;;;;4987147;28;20034;-86
2023/09/05 08:56:51;;;;;;;13.98;7.93;;;18.60;99.90;;;;;;4955713;28;20454;-85
2023/09/05 08:59:19;;;;;;;10.35;6.05;;;18.70;99.90;;;;;;4973344;28;20521;-86
2023/09/05 09:01:45;;;;;;;9.27;6.18;;;18.90;99.90;;;;;;4964921;28;20093;-85
2023/09/05 09:04:12;;;;;;;8.63;5.97;;;19.00;99.90;;;;;;4977098;28;20034;-85
2023/09/05 09:06:38;;;;;;;10.32;5.90;;;19.20;99.90;;;;;;4981433;28;20038;-86
2023/09/05 09:09:03;;;;;;;10.18;6.55;;;19.50;99.90;;;;;;4960206;28;20652;-85
2023/09/05 09:11:29;;;;;;;8.18;5.63;;;19.70;99.90;;;;;;4978409;28;20034;-85
2023/09/05 09:13:59;;;;;;;10.30;5.55;;;19.90;99.90;;;;;;4974290;28;20307;-85
2023/09/05 09:16:26;;;;;;;8.82;5.72;;;20.00;99.90;;;;;;4975610;28;20031;-85
2023/09/05 09:19:02;;;;;;;9.13;5.43;;;20.20;99.90;;;;;;4980502;28;20057;-85
2023/09/05 09:21:29;;;;;;;9.50;5.00;;;20.30;99.90;;;;;;4981390;28;20118;-85
2023/09/05 09:23:59;;;;;;;9.35;4.90;;;20.50;99.90;;;;;;4986877;28;20045;-85
2023/09/05 09:26:26;;;;;;;8.68;5.32;;;20.70;99.90;;;;;;4985915;28;20045;-85
2023/09/05 09:28:54;;;;;;;9.23;4.35;;;20.90;99.90;;;;;;4979604;28;20042;-85
2023/09/05 09:31:26;;;;;;;10.98;4.35;;;21.10;99.90;;;;;;4973683;28;20039;-85
2023/09/05 09:33:56;;;;;;;9.90;5.15;;;21.20;99.90;;;;;;4973470;28;20046;-86
2023/09/05 09:36:22;;;;;;;9.35;5.35;;;21.40;99.90;;;;;;4975099;28;20049;-85
2023/09/05 09:38:48;;;;;;;7.95;4.50;;;21.60;99.90;;;;;;4978721;28;20041;-85
2023/09/05 09:41:16;;;;;;;7.82;4.18;;;21.70;99.90;;;;;;4978676;28;20456;-85
2023/09/05 09:43:41;;;;;;;7.18;4.40;;;21.90;99.90;;;;;;4989221;28;20043;-85
2023/09/05 09:46:11;;;;;;;8.45;4.63;;;22.00;99.90;;;;;;4956131;28;20533;-85
2023/09/05 09:48:40;;;;;;;9.70;4.30;;;22.20;99.90;;;;;;4956258;28;20043;-85
2023/09/05 09:51:06;;;;;;;9.60;4.00;;;22.30;99.90;;;;;;4960104;28;20120;-85
2023/09/05 09:53:38;;;;;;;7.72;3.90;;;22.50;99.90;;;;;;4990790;28;20038;-85
2023/09/05 09:56:11;;;;;;;7.22;4.40;;;22.60;99.90;;;;;;4973637;28;20046;-85
2023/09/05 09:58:40;;;;;;;5.32;3.47;;;22.80;99.90;;;;;;4978596;28;20401;-85
2023/09/05 10:01:13;;;;;;;5.55;3.42;;;22.90;99.90;;;;;;4957196;28;20050;-85
2023/09/05 10:03:40;;;;;;;5.72;3.75;;;23.10;99.90;;;;;;4958764;28;20061;-85
2023/09/05 10:06:07;;;;;;;6.47;3.38;;;23.20;99.90;;;;;;4956122;28;20046;-85
2023/09/05 10:08:34;;;;;;;6.45;3.88;;;23.30;99.90;;;;;;4972062;28;20390;-85
2023/09/05 10:11:03;;;;;;;10.80;3.72;;;23.50;99.90;;;;;;4974756;28;20031;-85
2023/09/05 10:13:32;;;;;;;6.15;3.58;;;23.60;99.90;;;;;;4956545;28;20035;-85
2023/09/05 10:16:01;;;;;;;5.75;3.55;;;23.70;99.90;;;;;;4976539;28;20053;-85
2023/09/05 10:18:31;;;;;;;7.15;3.80;;;23.80;99.90;;;;;;4972537;28;20540;-85
2023/09/05 10:21:00;;;;;;;8.98;3.63;;;23.90;99.90;;;;;;4973333;28;20146;-85
2023/09/05 10:23:29;;;;;;;4.85;3.08;;;24.10;99.90;;;;;;4972614;28;20051;-85
2023/09/05 10:25:57;;;;;;;7.68;3.75;;;24.20;99.90;;;;;;4957712;28;20038;-85
2023/09/05 10:28:30;;;;;;;4.85;3.15;;;24.30;99.90;;;;;;4955069;28;20485;-85
2023/09/05 10:31:13;;;;;;;7.88;3.72;;;24.50;99.90;;;;;;4977010;28;20048;-84
2023/09/05 10:33:43;;;;;;;5.85;3.55;;;24.60;99.90;;;;;;4971969;28;20053;-85
2023/09/05 10:36:42;;;;;;;7.70;3.08;;;24.70;99.90;;;;;;4972330;28;20094;-85
2023/09/05 10:39:22;;;;;;;6.72;3.35;;;24.90;99.90;;;;;;4962127;28;20050;-85
2023/09/05 10:41:51;;;;;;;8.05;3.22;;;25.00;99.90;;;;;;4979254;28;20049;-85
2023/09/05 10:44:25;;;;;;;5.35;2.72;;;25.20;99.90;;;;;;4956853;28;20042;-86
2023/09/05 10:46:54;;;;;;;7.07;3.47;;;25.30;99.90;;;;;;4980744;28;20057;-85
2023/09/05 10:49:23;;;;;;;4.45;2.50;;;25.40;99.90;;;;;;4975553;28;20042;-85
2023/09/05 10:52:20;;;;;;;3.88;2.33;;;25.50;99.90;;;;;;4974554;28;20532;-84
2023/09/05 10:54:46;;;;;;;4.05;2.33;;;25.70;99.90;;;;;;4975520;28;20070;-85
2023/09/05 10:57:34;;;;;;;5.82;3.05;;;25.80;99.90;;;;;;4989663;28;20070;-84
2023/09/05 11:00:15;;;;;;;5.55;2.65;;;25.90;99.90;;;;;;4977564;28;20042;-85
2023/09/05 11:02:47;;;;;;;5.70;2.38;;;26.00;99.90;;;;;;4976595;28;20034;-86
2023/09/05 11:05:18;;;;;;;4.20;2.28;;;26.20;99.90;;;;;;4975500;28;20130;-85
2023/09/05 11:07:45;;;;;;;5.70;2.05;;;26.30;99.90;;;;;;4974076;28;20039;-85
2023/09/05 11:10:28;;;;;;;5.72;2.75;;;26.40;99.90;;;;;;4974139;28;20069;-84
2023/09/05 11:13:13;;;;;;;6.22;2.50;;;26.60;99.90;;;;;;4975544;28;20109;-85
2023/09/05 11:15:43;;;;;;;4.65;2.47;;;26.60;99.90;;;;;;4956463;28;20446;-85
2023/09/05 11:18:14;;;;;;;4.43;2.28;;;26.80;99.90;;;;;;4973107;28;20436;-85
2023/09/05 11:20:42;;;;;;;3.65;2.00;;;26.90;99.90;;;;;;4977229;28;20042;-85
2023/09/05 11:23:25;;;;;;;4.38;2.00;;;27.10;99.90;;;;;;4954120;28;20113;-85
2023/09/05 11:25:56;;;;;;;5.70;2.60;;;27.20;99.90;;;;;;4972007;28;20114;-85
2023/09/05 11:28:24;;;;;;;5.80;2.03;;;27.30;99.90;;;;;;4980751;28;20035;-94
2023/09/05 11:30:52;;;;;;;4.80;2.33;;;27.40;99.90;;;;;;4978714;28;20173;-87
2023/09/05 11:33:19;;;;;;;7.78;1.73;;;27.50;99.90;;;;;;4988092;28;20121;-87
2023/09/05 11:35:46;;;;;;;4.60;2.10;;;27.50;99.90;;;;;;4982691;28;20393;-86
2023/09/05 11:38:13;;;;;;;5.25;2.20;;;27.60;99.90;;;;;;4992467;28;20133;-86
2023/09/05 11:40:40;;;;;;;4.03;2.15;;;27.60;99.90;;;;;;4988868;28;20042;-87
2023/09/05 11:43:11;;;;;;;5.28;1.83;;;27.70;99.90;;;;;;4978654;28;20074;-87
2023/09/05 11:45:39;;;;;;;3.67;1.85;;;27.80;99.90;;;;;;4968171;28;20069;-87
2023/09/05 11:48:10;;;;;;;5.68;1.70;;;27.80;99.90;;;;;;4980460;28;20053;-87
2023/09/05 11:50:40;;;;;;;4.75;2.00;;;27.90;99.90;;;;;;4989458;28;20068;-87
2023/09/05 11:53:10;;;;;;;4.40;1.83;;;28.00;99.90;;;;;;4978633;28;20093;-87
2023/09/05 11:55:36;;;;;;;5.07;1.95;;;28.10;99.90;;;;;;4968072;28;20069;-87
2023/09/05 11:58:05;;;;;;;3.25;1.60;;;28.10;99.90;;;;;;4972190;28;20043;-87
2023/09/05 12:00:32;;;;;;;3.45;1.50;;;28.20;99.90;;;;;;4979112;28;20109;-87
2023/09/05 12:03:00;;;;;;;5.82;1.73;;;28.30;99.90;;;;;;4972788;28;20034;-86
2023/09/05 12:05:26;;;;;;;4.90;1.92;;;28.40;99.90;;;;;;4966017;28;20125;-86
2023/09/05 12:07:53;;;;;;;4.70;1.60;;;28.40;99.90;;;;;;4960101;28;20045;-87
2023/09/05 12:10:19;;;;;;;3.47;1.60;;;28.50;99.90;;;;;;4972198;28;20057;-84
2023/09/05 12:12:55;;;;;;;5.22;1.70;;;28.60;99.90;;;;;;4979577;28;20081;-86
2023/09/05 12:15:32;;;;;;;3.17;1.50;;;28.70;99.90;;;;;;4970066;28;20035;-86
2023/09/05 12:17:59;;;;;;;4.40;1.90;;;28.80;99.90;;;;;;4985443;28;20089;-85
2023/09/05 12:20:26;;;;;;;3.25;1.35;;;28.80;99.90;;;;;;4971611;28;20077;-84
2023/09/05 12:22:52;;;;;;;3.95;1.50;;;28.90;99.90;;;;;;4975571;28;20046;-85
2023/09/05 12:25:19;;;;;;;5.68;1.73;;;29.00;99.90;;;;;;4982857;28;20046;-85
2023/09/05 12:27:46;;;;;;;5.57;1.80;;;29.10;99.90;;;;;;4973952;28;20445;-85
2023/09/05 12:30:32;;;;;;;5.75;1.50;;;29.20;99.90;;;;;;4985941;28;20054;-85
2023/09/05 12:33:04;;;;;;;5.70;1.63;;;29.30;99.90;;;;;;4976308;28;20058;-86
2023/09/05 12:35:31;;;;;;;5.25;1.52;;;29.40;99.90;;;;;;4975451;28;20035;-85
2023/09/05 12:37:59;;;;;;;4.38;1.60;;;29.60;99.90;;;;;;4987256;28;20061;-85